Garland City, Arkansas
Current Conditions -  °F | °C
As of 9:01 PM on Sunday 21 Dec 2014 (Local Time) from KTXK Reporting Station
Overcast Overcast  
Wind Chill:   Ceiling: 2900
Heat Index:   Visibility: 10mi
Dew Point:   Wind: 5mph
Humidity: 89%   Direction: 210°SSW
Pressure: 29.89"   Gusts: NA
Location:  33.35°N, 93.75°W
Report Text: KTXK 220301Z 21004KT 10SM OVC029 09/07 A2989 RMK AO2 T00890072
Loading
Personal Weather Stations






























Interactive Weather Map New forecast layout! Learn more

10-Day Weather Forecast

Advertisements
Track Severe Weather on mobile